Time;durP1;ratioP1;P1;durP2;ratioP2;P2;SDS_P1;SDS_P2;PMS_P1;PMS_P2;Temp;Humidity;BMP_temperature;BMP_pressure;BME280_temperature;BME280_humidity;BME280_pressure;Samples;Min_cycle;Max_cycle;Signal;HPM_P1;HPM_P2
2023/03/08 00:00:06;;;;;;;2.72;1.23;;;;;6.40;99833.00;;;;5047402;28;20192;-76
2023/03/08 00:02:33;;;;;;;1.90;0.95;;;;;6.40;99826.00;;;;5047877;28;20227;-76
2023/03/08 00:05:01;;;;;;;1.20;0.80;;;;;6.40;99820.00;;;;5045511;28;20211;-76
2023/03/08 00:07:28;;;;;;;3.58;1.30;;;;;6.40;99824.00;;;;5047302;28;20223;-76
2023/03/08 00:09:55;;;;;;;1.23;0.95;;;;;6.30;99825.00;;;;5046620;28;20210;-76
2023/03/08 00:12:24;;;;;;;1.60;0.98;;;;;6.30;99830.00;;;;5047523;28;20203;-76
2023/03/08 00:14:51;;;;;;;1.13;0.90;;;;;6.30;99832.00;;;;5043661;28;20203;-76
2023/03/08 00:17:19;;;;;;;1.50;1.05;;;;;6.40;99835.00;;;;5045695;28;20571;-76
2023/03/08 00:19:46;;;;;;;1.58;0.98;;;;;6.30;99840.00;;;;5045075;28;20199;-76
2023/03/08 00:22:14;;;;;;;1.85;1.08;;;;;6.40;99842.00;;;;5047591;28;20227;-76
2023/03/08 00:24:41;;;;;;;1.30;0.80;;;;;6.40;99847.00;;;;5039503;28;20206;-76
2023/03/08 00:27:08;;;;;;;1.65;0.80;;;;;6.40;99842.00;;;;5046688;28;20203;-76
2023/03/08 00:29:37;;;;;;;2.60;1.30;;;;;6.30;99842.00;;;;5046597;28;20187;-76
2023/03/08 00:32:04;;;;;;;1.77;0.95;;;;;6.40;99838.00;;;;5042031;28;20196;-76
2023/03/08 00:34:32;;;;;;;3.15;1.30;;;;;6.30;99834.00;;;;5045519;28;20207;-76
2023/03/08 00:36:59;;;;;;;1.75;0.90;;;;;6.30;99829.00;;;;5046393;28;20204;-76
2023/03/08 00:39:26;;;;;;;1.42;1.00;;;;;6.30;99831.00;;;;5046676;28;20191;-76
2023/03/08 00:41:53;;;;;;;2.00;1.13;;;;;6.30;99831.00;;;;5045430;28;20215;-76
2023/03/08 00:44:21;;;;;;;2.20;1.20;;;;;6.30;99832.00;;;;5047126;28;20198;-76
2023/03/08 00:46:49;;;;;;;1.35;0.70;;;;;6.30;99825.00;;;;5047306;28;20196;-76
2023/03/08 00:49:17;;;;;;;1.52;1.00;;;;;6.30;99840.00;;;;5046001;28;20211;-76
2023/03/08 00:51:44;;;;;;;2.00;1.13;;;;;6.30;99834.00;;;;5045837;28;20196;-76
2023/03/08 00:54:11;;;;;;;0.90;0.70;;;;;6.30;99812.00;;;;5047836;28;20207;-76
2023/03/08 00:56:38;;;;;;;1.80;1.02;;;;;6.30;99810.00;;;;5048132;28;20207;-75
2023/03/08 00:59:06;;;;;;;1.55;1.20;;;;;6.30;99803.00;;;;5046219;28;20204;-76
2023/03/08 01:01:33;;;;;;;1.20;0.90;;;;;6.20;99810.00;;;;5047527;28;20230;-76
2023/03/08 01:04:02;;;;;;;2.03;1.08;;;;;6.20;99801.00;;;;5046119;28;20206;-76
2023/03/08 01:06:30;;;;;;;2.53;1.27;;;;;6.20;99791.00;;;;5047256;28;20301;-76
2023/03/08 01:08:57;;;;;;;2.13;1.13;;;;;6.20;99796.00;;;;5047887;28;20202;-76
2023/03/08 01:11:26;;;;;;;1.20;1.00;;;;;6.20;99789.00;;;;5045204;28;20203;-76
2023/03/08 01:13:54;;;;;;;1.67;1.27;;;;;6.20;99790.00;;;;5046052;28;20241;-76
2023/03/08 01:16:23;;;;;;;1.65;1.30;;;;;6.20;99790.00;;;;5045662;28;20214;-75
2023/03/08 01:18:52;;;;;;;1.27;0.90;;;;;6.20;99792.00;;;;5044771;28;20199;-76
2023/03/08 01:21:21;;;;;;;2.30;1.42;;;;;6.20;99793.00;;;;5045734;28;20635;-76
2023/03/08 01:23:49;;;;;;;1.40;1.02;;;;;6.20;99776.00;;;;5044569;28;20202;-76
2023/03/08 01:26:18;;;;;;;2.22;1.38;;;;;6.20;99775.00;;;;5046749;28;20295;-76
2023/03/08 01:28:46;;;;;;;1.45;1.20;;;;;6.20;99775.00;;;;5045387;28;20200;-76
2023/03/08 01:31:16;;;;;;;1.80;1.02;;;;;6.20;99771.00;;;;5038167;28;20187;-76
2023/03/08 01:33:44;;;;;;;1.58;1.23;;;;;6.20;99772.00;;;;5043721;28;20196;-75
2023/03/08 01:36:14;;;;;;;1.77;1.23;;;;;6.20;99772.00;;;;5044541;28;20203;-76
2023/03/08 01:38:43;;;;;;;1.50;1.20;;;;;6.20;99766.00;;;;5043834;28;20658;-76
2023/03/08 01:41:15;;;;;;;1.50;1.17;;;;;6.10;99761.00;;;;5048414;28;20199;-75
2023/03/08 01:43:43;;;;;;;1.73;1.25;;;;;6.20;99754.00;;;;5044100;28;20200;-75
2023/03/08 01:46:35;;;;;;;2.17;1.30;;;;;6.00;99751.00;;;;5043999;28;20192;-75
2023/03/08 01:49:08;;;;;;;2.00;1.38;;;;;6.10;99755.00;;;;5025451;28;20355;-75
2023/03/08 01:51:39;;;;;;;1.65;1.45;;;;;6.10;99742.00;;;;5047470;28;20203;-76
2023/03/08 01:54:12;;;;;;;3.45;1.60;;;;;6.10;99755.00;;;;5048758;28;20590;-76
2023/03/08 01:56:42;;;;;;;2.00;1.42;;;;;6.10;99744.00;;;;5039079;28;20206;-76
2023/03/08 01:59:10;;;;;;;2.17;1.40;;;;;6.10;99732.00;;;;5050009;28;20207;-76
2023/03/08 02:01:38;;;;;;;4.18;1.98;;;;;6.10;99732.00;;;;5050153;28;20202;-75
2023/03/08 02:04:06;;;;;;;2.53;1.75;;;;;6.10;99730.00;;;;5048749;28;20192;-76
2023/03/08 02:06:34;;;;;;;3.25;1.90;;;;;6.10;99726.00;;;;5050508;28;20219;-76
2023/03/08 02:09:03;;;;;;;2.22;1.67;;;;;6.10;99729.00;;;;5050390;28;20225;-75
2023/03/08 02:11:33;;;;;;;3.03;1.83;;;;;6.10;99726.00;;;;5050212;28;20196;-76
2023/03/08 02:14:00;;;;;;;3.20;2.15;;;;;6.10;99720.00;;;;5049695;28;20195;-75
2023/03/08 02:16:28;;;;;;;1.92;1.77;;;;;6.10;99719.00;;;;5049769;28;20229;-76
2023/03/08 02:18:59;;;;;;;4.22;1.85;;;;;6.10;99714.00;;;;5051740;28;20199;-75
2023/03/08 02:21:27;;;;;;;3.08;2.03;;;;;6.10;99707.00;;;;5050358;28;20227;-76
2023/03/08 02:24:02;;;;;;;4.63;2.42;;;;;6.10;99711.00;;;;5046510;28;20207;-75
2023/03/08 02:26:29;;;;;;;4.13;2.13;;;;;6.10;99712.00;;;;5048737;28;20210;-76
2023/03/08 02:28:56;;;;;;;2.65;2.00;;;;;6.10;99704.00;;;;5048528;28;20200;-76
2023/03/08 02:31:24;;;;;;;2.97;2.50;;;;;6.10;99704.00;;;;5047428;28;20200;-76
2023/03/08 02:33:51;;;;;;;3.67;2.63;;;;;6.10;99704.00;;;;5047048;28;20199;-76
2023/03/08 02:36:18;;;;;;;3.40;2.90;;;;;6.10;99699.00;;;;5049560;28;20198;-76
2023/03/08 02:38:45;;;;;;;2.83;2.58;;;;;6.10;99691.00;;;;5047975;28;20212;-75
2023/03/08 02:41:14;;;;;;;3.40;2.67;;;;;6.10;99694.00;;;;5049686;28;20195;-76
2023/03/08 02:43:41;;;;;;;4.18;3.15;;;;;6.20;99684.00;;;;5045727;28;20223;-76
2023/03/08 02:46:11;;;;;;;4.78;2.90;;;;;6.20;99682.00;;;;5043469;28;20198;-76
2023/03/08 02:48:39;;;;;;;3.22;2.92;;;;;6.20;99682.00;;;;5036649;28;20201;-76
2023/03/08 02:51:07;;;;;;;4.38;3.80;;;;;6.20;99676.00;;;;5047023;28;20204;-76
2023/03/08 02:53:34;;;;;;;4.10;3.33;;;;;6.30;99666.00;;;;5049287;28;20203;-76
2023/03/08 02:56:01;;;;;;;5.90;3.42;;;;;6.30;99675.00;;;;5050618;28;21038;-76
2023/03/08 02:58:30;;;;;;;4.05;3.47;;;;;6.30;99658.00;;;;5049226;28;20203;-76
2023/03/08 03:00:57;;;;;;;5.93;3.85;;;;;6.30;99677.00;;;;5049630;28;20203;-75
2023/03/08 03:03:25;;;;;;;5.18;4.22;;;;;6.40;99678.00;;;;5048679;28;20227;-76
2023/03/08 03:05:52;;;;;;;7.53;4.35;;;;;6.40;99678.00;;;;5048924;28;20202;-76
2023/03/08 03:08:19;;;;;;;4.80;4.00;;;;;6.40;99678.00;;;;5045149;28;21109;-76
2023/03/08 03:10:47;;;;;;;5.65;4.40;;;;;6.40;99684.00;;;;5047154;28;20198;-76
2023/03/08 03:13:14;;;;;;;8.30;4.38;;;;;6.50;99679.00;;;;5047061;28;20202;-76
2023/03/08 03:15:42;;;;;;;5.22;4.55;;;;;6.50;99676.00;;;;5045222;28;20196;-76
2023/03/08 03:18:10;;;;;;;5.22;4.20;;;;;6.50;99682.00;;;;5044345;28;20196;-75
2023/03/08 03:20:37;;;;;;;9.20;5.32;;;;;6.60;99679.00;;;;5041697;28;21051;-74
2023/03/08 03:23:05;;;;;;;8.05;5.90;;;;;6.60;99679.00;;;;5047385;28;20222;-74
2023/03/08 03:25:36;;;;;;;19.08;6.20;;;;;6.60;99674.00;;;;5048497;28;20206;-74
2023/03/08 03:28:03;;;;;;;8.80;6.30;;;;;6.70;99659.00;;;;5049577;28;20711;-74
2023/03/08 03:30:30;;;;;;;9.32;6.20;;;;;6.70;99660.00;;;;5049094;28;20266;-75
2023/03/08 03:32:59;;;;;;;8.43;6.68;;;;;6.70;99667.00;;;;5041383;28;20563;-74
2023/03/08 03:35:26;;;;;;;11.07;6.88;;;;;6.80;99656.00;;;;5041831;28;20200;-74
2023/03/08 03:37:54;;;;;;;11.38;6.70;;;;;6.80;99653.00;;;;5038606;28;20203;-74
2023/03/08 03:40:21;;;;;;;9.43;6.70;;;;;6.80;99646.00;;;;5045143;28;20188;-74
2023/03/08 03:42:49;;;;;;;11.98;7.53;;;;;6.80;99640.00;;;;5044020;28;20230;-74
2023/03/08 03:45:17;;;;;;;9.95;7.32;;;;;6.90;99629.00;;;;5047938;28;20230;-74
2023/03/08 03:47:44;;;;;;;10.52;6.93;;;;;6.90;99628.00;;;;5048664;28;20195;-74
2023/03/08 03:50:13;;;;;;;11.20;7.20;;;;;6.90;99626.00;;;;5044853;28;20188;-74
2023/03/08 03:52:40;;;;;;;11.15;7.82;;;;;7.00;99623.00;;;;5048880;28;20200;-74
2023/03/08 03:55:09;;;;;;;10.80;8.02;;;;;7.00;99613.00;;;;5045817;28;20192;-74
2023/03/08 03:57:36;;;;;;;13.60;8.32;;;;;7.10;99623.00;;;;5048677;28;20565;-74
2023/03/08 04:00:05;;;;;;;13.25;8.05;;;;;7.10;99616.00;;;;5047157;28;20203;-74
2023/03/08 04:02:32;;;;;;;15.85;9.02;;;;;7.10;99612.00;;;;5046342;28;20251;-74
2023/03/08 04:04:59;;;;;;;15.07;8.82;;;;;7.10;99602.00;;;;5046664;28;20689;-74
2023/03/08 04:07:28;;;;;;;15.93;9.95;;;;;7.20;99607.00;;;;5046604;28;20744;-74
2023/03/08 04:09:55;;;;;;;14.05;9.55;;;;;7.20;99611.00;;;;5047222;28;20195;-74
2023/03/08 04:12:23;;;;;;;15.43;9.48;;;;;7.20;99614.00;;;;5047065;28;20654;-74
2023/03/08 04:14:50;;;;;;;14.75;9.00;;;;;7.30;99619.00;;;;5046797;28;20199;-74
2023/03/08 04:17:17;;;;;;;15.65;9.25;;;;;7.30;99616.00;;;;5046840;28;20205;-74
2023/03/08 04:19:44;;;;;;;14.73;9.43;;;;;7.30;99613.00;;;;5043834;28;20196;-74
2023/03/08 04:22:12;;;;;;;17.13;9.80;;;;;7.30;99599.00;;;;5043372;28;20223;-75
2023/03/08 04:24:40;;;;;;;15.88;10.25;;;;;7.40;99599.00;;;;5047016;28;20192;-74
2023/03/08 04:27:08;;;;;;;19.67;11.10;;;;;7.40;99589.00;;;;5048427;28;20203;-74
2023/03/08 04:29:35;;;;;;;15.57;9.75;;;;;7.40;99589.00;;;;5048442;28;20199;-74
2023/03/08 04:32:02;;;;;;;16.77;9.95;;;;;7.50;99584.00;;;;5046234;28;20196;-74
2023/03/08 04:34:30;;;;;;;16.48;9.73;;;;;7.50;99578.00;;;;5045359;28;21061;-74
2023/03/08 04:36:57;;;;;;;15.32;10.23;;;;;7.50;99578.00;;;;5047441;28;20203;-74
2023/03/08 04:39:24;;;;;;;18.50;10.82;;;;;7.50;99576.00;;;;5043348;28;20214;-74
2023/03/08 04:41:53;;;;;;;16.60;10.02;;;;;7.50;99579.00;;;;5045639;28;20196;-75
2023/03/08 04:44:20;;;;;;;18.83;11.35;;;;;7.50;99566.00;;;;5045576;28;20262;-74
2023/03/08 04:46:48;;;;;;;19.40;10.90;;;;;7.50;99574.00;;;;5042687;28;20204;-75
2023/03/08 04:49:15;;;;;;;18.35;10.43;;;;;7.50;99570.00;;;;5042189;28;20211;-74
2023/03/08 04:51:42;;;;;;;14.05;9.52;;;;;7.50;99564.00;;;;5043319;28;20207;-75
2023/03/08 04:54:09;;;;;;;17.45;10.70;;;;;7.50;99554.00;;;;5044717;28;20214;-75
2023/03/08 04:56:37;;;;;;;16.52;9.23;;;;;7.60;99548.00;;;;5043547;28;20199;-75
2023/03/08 04:59:05;;;;;;;14.55;9.23;;;;;7.60;99548.00;;;;5042243;28;20195;-75
2023/03/08 05:01:33;;;;;;;21.38;9.25;;;;;7.60;99547.00;;;;5047152;28;20200;-75
2023/03/08 05:04:00;;;;;;;12.68;9.00;;;;;7.60;99537.00;;;;5043212;28;20807;-75
2023/03/08 05:06:28;;;;;;;13.20;8.52;;;;;7.60;99549.00;;;;5046059;28;20196;-75
2023/03/08 05:08:55;;;;;;;13.35;9.18;;;;;7.60;99539.00;;;;5044177;28;20204;-74
2023/03/08 05:11:25;;;;;;;14.20;9.95;;;;;7.50;99542.00;;;;5041570;28;20207;-74
2023/03/08 05:13:54;;;;;;;14.35;9.57;;;;;7.50;99527.00;;;;5042579;28;20191;-74
2023/03/08 05:16:23;;;;;;;16.10;10.88;;;;;7.50;99521.00;;;;5046410;28;20195;-75
2023/03/08 05:18:51;;;;;;;14.70;9.10;;;;;7.60;99516.00;;;;5047004;28;20196;-75
2023/03/08 05:21:20;;;;;;;14.35;9.50;;;;;7.60;99515.00;;;;5040966;28;20219;-74
2023/03/08 05:23:47;;;;;;;14.45;9.13;;;;;7.60;99511.00;;;;5044550;28;20223;-75
2023/03/08 05:26:18;;;;;;;13.38;9.15;;;;;7.60;99495.00;;;;5047765;28;20689;-74
2023/03/08 05:28:45;;;;;;;15.52;9.50;;;;;7.60;99490.00;;;;5047601;28;20195;-75
2023/03/08 05:31:15;;;;;;;16.73;10.20;;;;;7.60;99491.00;;;;5046623;28;20196;-75
2023/03/08 05:33:46;;;;;;;15.80;10.93;;;;;7.60;99481.00;;;;5042327;28;20207;-75
2023/03/08 05:36:15;;;;;;;17.65;10.43;;;;;7.60;99479.00;;;;5040901;28;20222;-75
2023/03/08 05:38:43;;;;;;;15.73;10.02;;;;;7.60;99485.00;;;;5046426;28;20198;-75
2023/03/08 05:41:14;;;;;;;16.10;11.30;;;;;7.60;99472.00;;;;5046691;28;20198;-75
2023/03/08 05:43:42;;;;;;;16.88;10.90;;;;;7.70;99464.00;;;;5045081;28;20716;-75
2023/03/08 05:46:12;;;;;;;15.63;9.75;;;;;7.70;99464.00;;;;5047490;28;20207;-75
2023/03/08 05:48:40;;;;;;;17.90;10.88;;;;;7.70;99445.00;;;;5041260;28;20219;-75
2023/03/08 05:51:10;;;;;;;15.75;10.02;;;;;7.60;99441.00;;;;5045852;28;20202;-75
2023/03/08 05:53:38;;;;;;;13.73;9.30;;;;;7.70;99427.00;;;;5042566;28;20204;-74
2023/03/08 05:56:10;;;;;;;13.40;9.00;;;;;7.60;99428.00;;;;5041969;28;20207;-75
2023/03/08 05:58:38;;;;;;;14.77;9.50;;;;;7.70;99422.00;;;;5046919;28;20192;-75
2023/03/08 06:01:13;;;;;;;15.32;10.10;;;;;7.60;99420.00;;;;5044284;28;20226;-75
2023/03/08 06:03:41;;;;;;;15.90;10.35;;;;;7.70;99421.00;;;;5044939;28;20226;-75
2023/03/08 06:06:10;;;;;;;12.65;8.82;;;;;7.60;99425.00;;;;5043470;28;20692;-75
2023/03/08 06:08:37;;;;;;;13.82;9.40;;;;;7.70;99429.00;;;;5042883;28;20215;-75
2023/03/08 06:11:04;;;;;;;15.88;10.88;;;;;7.70;99424.00;;;;5042232;28;20747;-75
2023/03/08 06:13:32;;;;;;;16.02;9.95;;;;;7.70;99425.00;;;;5043348;28;20199;-74
2023/03/08 06:16:00;;;;;;;15.93;9.90;;;;;7.70;99412.00;;;;5045975;28;20203;-75
2023/03/08 06:18:29;;;;;;;15.60;9.98;;;;;7.70;99412.00;;;;5043903;28;20204;-75
2023/03/08 06:21:00;;;;;;;14.95;9.80;;;;;7.70;99409.00;;;;5043339;28;20215;-75
2023/03/08 06:23:30;;;;;;;15.55;9.95;;;;;7.70;99415.00;;;;5045073;28;21090;-74
2023/03/08 06:25:58;;;;;;;14.30;9.75;;;;;7.70;99412.00;;;;5046857;28;20206;-75
2023/03/08 06:28:27;;;;;;;15.93;10.25;;;;;7.70;99410.00;;;;5043766;28;20290;-75
2023/03/08 06:30:55;;;;;;;14.32;9.82;;;;;7.70;99405.00;;;;5044388;28;20215;-74
2023/03/08 06:33:24;;;;;;;13.93;9.55;;;;;7.70;99408.00;;;;5038187;28;20195;-74
2023/03/08 06:35:59;;;;;;;14.90;10.07;;;;;7.60;99418.00;;;;5040974;28;20200;-74
2023/03/08 06:38:28;;;;;;;15.07;9.85;;;;;7.70;99423.00;;;;5040349;28;20210;-75
2023/03/08 06:40:56;;;;;;;14.75;9.77;;;;;7.70;99418.00;;;;5047291;28;20196;-75
2023/03/08 06:43:24;;;;;;;17.83;10.73;;;;;7.70;99413.00;;;;5046858;28;20226;-74
2023/03/08 06:45:51;;;;;;;15.93;11.02;;;;;7.70;99417.00;;;;5043570;28;20211;-74
2023/03/08 06:48:19;;;;;;;13.82;9.88;;;;;7.70;99414.00;;;;5046024;28;20203;-74
2023/03/08 06:50:46;;;;;;;14.25;10.02;;;;;7.80;99416.00;;;;5048082;28;20187;-74
2023/03/08 06:53:14;;;;;;;14.68;10.07;;;;;7.80;99414.00;;;;5050830;28;20215;-74
2023/03/08 06:55:43;;;;;;;14.20;10.27;;;;;7.80;99414.00;;;;5049290;28;20211;-74
2023/03/08 06:58:10;;;;;;;16.58;10.85;;;;;7.80;99415.00;;;;5048481;28;20195;-74
2023/03/08 07:00:38;;;;;;;18.02;10.55;;;;;7.80;99415.00;;;;5048263;28;20211;-74
2023/03/08 07:03:05;;;;;;;19.35;12.02;;;;;7.80;99413.00;;;;5036827;28;20192;-74
2023/03/08 07:05:32;;;;;;;17.25;10.63;;;;;7.80;99416.00;;;;5049013;28;20207;-74
2023/03/08 07:08:00;;;;;;;15.98;10.88;;;;;7.80;99416.00;;;;5049435;28;20239;-74
2023/03/08 07:10:27;;;;;;;16.00;11.00;;;;;7.80;99407.00;;;;5046516;28;20195;-74
2023/03/08 07:12:56;;;;;;;15.43;10.30;;;;;7.90;99410.00;;;;5049954;28;20579;-73
2023/03/08 07:15:24;;;;;;;18.00;11.95;;;;;7.90;99410.00;;;;5048339;28;20282;-74
2023/03/08 07:17:54;;;;;;;17.92;11.45;;;;;7.90;99409.00;;;;5048884;28;20294;-74
2023/03/08 07:20:23;;;;;;;18.42;11.63;;;;;7.90;99403.00;;;;5044263;28;20658;-74
2023/03/08 07:22:51;;;;;;;17.77;10.77;;;;;7.90;99401.00;;;;5045689;28;20316;-73
2023/03/08 07:25:20;;;;;;;16.27;11.63;;;;;7.90;99400.00;;;;5045264;28;20224;-74
2023/03/08 07:27:48;;;;;;;19.02;12.30;;;;;8.00;99395.00;;;;5048160;28;20191;-74
2023/03/08 07:30:17;;;;;;;17.70;11.07;;;;;8.00;99391.00;;;;5043472;28;20196;-74
2023/03/08 07:32:44;;;;;;;16.77;11.20;;;;;8.00;99400.00;;;;5044749;28;20191;-74
2023/03/08 07:35:13;;;;;;;18.77;11.23;;;;;8.00;99392.00;;;;5040488;28;20201;-74
2023/03/08 07:37:43;;;;;;;18.08;11.80;;;;;8.10;99390.00;;;;5049208;28;20188;-74
2023/03/08 07:40:11;;;;;;;19.73;12.63;;;;;8.10;99391.00;;;;5047069;28;20196;-74
2023/03/08 07:42:39;;;;;;;19.33;11.48;;;;;8.10;99388.00;;;;5038092;28;20219;-75
2023/03/08 07:45:07;;;;;;;20.70;11.90;;;;;8.10;99378.00;;;;5047887;28;20231;-74
2023/03/08 07:47:36;;;;;;;19.63;12.55;;;;;8.10;99379.00;;;;5049144;28;20203;-74
2023/03/08 07:50:03;;;;;;;19.83;12.82;;;;;8.20;99374.00;;;;5043645;28;20200;-75
2023/03/08 07:52:31;;;;;;;19.27;11.93;;;;;8.20;99378.00;;;;5043951;28;20203;-74
2023/03/08 07:55:01;;;;;;;23.42;12.85;;;;;8.20;99375.00;;;;5046319;28;20208;-74
2023/03/08 07:57:28;;;;;;;20.20;12.23;;;;;8.20;99374.00;;;;5039806;28;20284;-74
2023/03/08 07:59:55;;;;;;;21.95;12.38;;;;;8.20;99368.00;;;;5047242;28;20204;-74
2023/03/08 08:02:22;;;;;;;19.30;11.57;;;;;8.20;99362.00;;;;5045225;28;20203;-75
2023/03/08 08:04:51;;;;;;;19.63;12.55;;;;;8.30;99364.00;;;;5036685;28;20220;-75
2023/03/08 08:07:18;;;;;;;23.65;13.23;;;;;8.30;99364.00;;;;5040490;28;20238;-75
2023/03/08 08:09:46;;;;;;;21.35;12.18;;;;;8.30;99352.00;;;;5038735;28;20207;-75
2023/03/08 08:12:14;;;;;;;21.55;13.02;;;;;8.40;99359.00;;;;5042336;28;20204;-75
2023/03/08 08:14:41;;;;;;;22.10;12.88;;;;;8.40;99357.00;;;;5044976;28;20200;-74
2023/03/08 08:17:09;;;;;;;22.52;11.57;;;;;8.40;99356.00;;;;5047656;28;20196;-75
2023/03/08 08:19:36;;;;;;;20.75;12.05;;;;;8.50;99348.00;;;;5042803;28;20204;-75
2023/03/08 08:22:05;;;;;;;20.50;12.43;;;;;8.50;99350.00;;;;5037430;28;20246;-75
2023/03/08 08:24:33;;;;;;;21.30;12.73;;;;;8.50;99338.00;;;;5040848;28;20246;-75
2023/03/08 08:27:00;;;;;;;23.77;13.95;;;;;8.60;99345.00;;;;5047552;28;20249;-75
2023/03/08 08:29:28;;;;;;;21.83;12.25;;;;;8.60;99338.00;;;;5045774;28;20191;-75
2023/03/08 08:31:55;;;;;;;18.60;11.25;;;;;8.70;99338.00;;;;5047319;28;20206;-75
2023/03/08 08:34:23;;;;;;;21.42;12.40;;;;;8.70;99330.00;;;;5041289;28;20199;-75
2023/03/08 08:36:50;;;;;;;22.45;12.13;;;;;8.80;99339.00;;;;5039693;28;20583;-75
2023/03/08 08:39:19;;;;;;;21.23;11.95;;;;;8.80;99332.00;;;;5044206;28;20203;-76
2023/03/08 08:41:48;;;;;;;21.83;12.85;;;;;8.80;99334.00;;;;5041924;28;20196;-76
2023/03/08 08:44:15;;;;;;;22.30;12.70;;;;;8.90;99322.00;;;;5039565;28;20222;-75
2023/03/08 08:46:42;;;;;;;22.00;12.90;;;;;8.90;99319.00;;;;5047573;28;20199;-76
2023/03/08 08:49:10;;;;;;;20.38;11.18;;;;;9.00;99326.00;;;;5048239;28;20211;-75
2023/03/08 08:51:38;;;;;;;19.77;11.18;;;;;9.00;99313.00;;;;5047933;28;20199;-76
2023/03/08 08:54:05;;;;;;;20.35;11.30;;;;;9.00;99323.00;;;;5045322;28;20204;-75
2023/03/08 08:56:34;;;;;;;19.42;11.57;;;;;9.10;99312.00;;;;5043919;28;20200;-76
2023/03/08 08:59:02;;;;;;;19.60;10.55;;;;;9.10;99313.00;;;;5049654;28;20572;-75
2023/03/08 09:01:31;;;;;;;17.23;10.10;;;;;9.20;99316.00;;;;5042165;28;20188;-76
2023/03/08 09:03:59;;;;;;;21.00;11.07;;;;;9.20;99319.00;;;;5037491;28;20934;-76
2023/03/08 09:06:28;;;;;;;16.90;10.55;;;;;9.20;99317.00;;;;5043408;28;20199;-76
2023/03/08 09:08:58;;;;;;;17.42;10.50;;;;;9.30;99323.00;;;;5040720;28;20219;-76
2023/03/08 09:11:27;;;;;;;16.85;10.27;;;;;9.30;99311.00;;;;5038075;28;20204;-75
2023/03/08 09:13:55;;;;;;;20.05;11.40;;;;;9.30;99307.00;;;;5049018;28;20571;-76
2023/03/08 09:16:25;;;;;;;19.13;10.93;;;;;9.40;99307.00;;;;5042100;28;20666;-76
2023/03/08 09:18:55;;;;;;;15.73;9.50;;;;;9.40;99307.00;;;;5041238;28;20196;-76
2023/03/08 09:21:22;;;;;;;16.75;9.93;;;;;9.50;99306.00;;;;5038668;28;20216;-76
2023/03/08 09:23:50;;;;;;;17.42;10.13;;;;;9.50;99300.00;;;;5043536;28;20191;-75
2023/03/08 09:26:17;;;;;;;17.15;9.48;;;;;9.50;99297.00;;;;5047812;28;20191;-76
2023/03/08 09:28:45;;;;;;;14.43;9.13;;;;;9.50;99295.00;;;;5036639;28;20658;-75
2023/03/08 09:31:16;;;;;;;13.90;8.30;;;;;9.50;99283.00;;;;5047274;28;20196;-75
2023/03/08 09:33:45;;;;;;;13.60;9.18;;;;;9.60;99279.00;;;;5044203;28;20281;-76
2023/03/08 09:36:12;;;;;;;14.90;9.20;;;;;9.60;99272.00;;;;5033242;28;20200;-76
2023/03/08 09:38:40;;;;;;;17.27;9.90;;;;;9.60;99267.00;;;;5039693;28;20208;-76
2023/03/08 09:41:24;;;;;;;14.32;8.35;;;;;9.60;99252.00;;;;5038838;28;20360;-76
2023/03/08 09:44:09;;;;;;;15.52;9.82;;;;;9.60;99261.00;;;;5035936;28;20203;-76
2023/03/08 09:46:45;;;;;;;12.85;8.32;;;;;9.70;99250.00;;;;5037100;28;20195;-76
2023/03/08 09:49:15;;;;;;;13.43;8.23;;;;;9.80;99246.00;;;;5044634;28;20199;-76
2023/03/08 09:51:47;;;;;;;14.32;8.90;;;;;9.80;99255.00;;;;5046550;28;20582;-76
2023/03/08 09:54:20;;;;;;;13.98;8.18;;;;;9.80;99256.00;;;;5045383;28;20195;-75
2023/03/08 09:56:49;;;;;;;14.02;8.52;;;;;9.90;99255.00;;;;5043133;28;20208;-76
2023/03/08 09:59:22;;;;;;;15.75;9.10;;;;;10.00;99240.00;;;;5037695;28;20207;-76
2023/03/08 10:01:58;;;;;;;16.92;9.88;;;;;10.00;99239.00;;;;5041597;28;20230;-76
2023/03/08 10:04:39;;;;;;;18.23;10.60;;;;;10.10;99240.00;;;;5044706;28;20314;-76
2023/03/08 10:07:24;;;;;;;14.98;9.15;;;;;10.10;99246.00;;;;5034007;28;20728;-76
2023/03/08 10:10:02;;;;;;;15.77;10.30;;;;;10.20;99250.00;;;;5037324;28;20842;-76
2023/03/08 10:12:35;;;;;;;19.38;10.68;;;;;10.20;99255.00;;;;5042373;28;20827;-75
2023/03/08 10:15:08;;;;;;;13.95;9.15;;;;;10.30;99256.00;;;;5038755;28;20203;-75
2023/03/08 10:17:44;;;;;;;13.55;8.32;;;;;10.30;99249.00;;;;5046453;28;20226;-75
2023/03/08 10:20:20;;;;;;;13.95;9.25;;;;;10.30;99248.00;;;;5046324;28;20198;-74
2023/03/08 10:22:56;;;;;;;13.80;9.02;;;;;10.40;99250.00;;;;5042733;28;20230;-76
2023/03/08 10:25:25;;;;;;;13.88;8.57;;;;;10.40;99248.00;;;;5036939;28;20713;-75
2023/03/08 10:27:55;;;;;;;15.38;9.63;;;;;10.50;99254.00;;;;5045577;28;20211;-75
2023/03/08 10:30:25;;;;;;;18.48;10.20;;;;;10.60;99248.00;;;;5042981;28;20196;-75
2023/03/08 10:32:59;;;;;;;15.85;10.20;;;;;10.60;99238.00;;;;5045269;28;20211;-75
2023/03/08 10:35:35;;;;;;;15.60;9.48;;;;;10.60;99233.00;;;;5043413;28;20207;-75
2023/03/08 10:38:04;;;;;;;16.33;9.98;;;;;10.70;99234.00;;;;5049164;28;20199;-75
2023/03/08 10:40:31;;;;;;;15.70;10.15;;;;;10.70;99227.00;;;;5045068;28;20230;-75
2023/03/08 10:43:04;;;;;;;14.30;8.80;;;;;10.70;99212.00;;;;5046264;28;20214;-75
2023/03/08 10:45:32;;;;;;;16.27;10.73;;;;;10.80;99204.00;;;;5049794;28;20276;-74
2023/03/08 10:48:02;;;;;;;14.40;9.25;;;;;10.80;99198.00;;;;5034046;28;20208;-75
2023/03/08 10:50:31;;;;;;;16.45;9.85;;;;;10.80;99198.00;;;;5047751;28;20212;-75
2023/03/08 10:53:10;;;;;;;16.73;9.70;;;;;10.80;99185.00;;;;5046991;28;20200;-76
2023/03/08 10:55:44;;;;;;;15.10;9.40;;;;;10.80;99190.00;;;;5048772;28;20684;-75
2023/03/08 10:58:31;;;;;;;15.15;9.35;;;;;10.80;99200.00;;;;5045170;28;20195;-75
2023/03/08 11:01:01;;;;;;;13.00;8.52;;;;;10.90;99199.00;;;;5040996;28;20204;-75
2023/03/08 11:03:30;;;;;;;16.15;10.50;;;;;10.90;99206.00;;;;5042294;28;20419;-75
2023/03/08 11:06:00;;;;;;;14.88;9.50;;;;;10.90;99215.00;;;;5045603;28;20234;-75
2023/03/08 11:08:30;;;;;;;16.67;10.43;;;;;11.00;99217.00;;;;5047123;28;20227;-75
2023/03/08 11:11:03;;;;;;;15.10;9.75;;;;;11.00;99226.00;;;;5045918;28;20551;-75
2023/03/08 11:13:32;;;;;;;16.95;9.95;;;;;11.00;99223.00;;;;5047896;28;20206;-75
2023/03/08 11:16:37;;;;;;;14.13;9.00;;;;;10.90;99228.00;;;;5047348;28;20204;-77
2023/03/08 11:19:16;;;;;;;14.13;9.50;;;;;11.00;99225.00;;;;5043364;28;20677;-75
2023/03/08 11:21:52;;;;;;;14.20;9.30;;;;;11.00;99210.00;;;;5044879;28;20265;-75
2023/03/08 11:24:29;;;;;;;15.52;9.80;;;;;11.00;99211.00;;;;5046420;28;20207;-76
2023/03/08 11:27:08;;;;;;;15.27;9.50;;;;;11.10;99213.00;;;;5032852;28;20191;-76
2023/03/08 11:29:48;;;;;;;15.20;9.13;;;;;11.10;99217.00;;;;5038880;28;20203;-76
2023/03/08 11:32:29;;;;;;;15.02;9.93;;;;;11.20;99207.00;;;;5032352;28;20196;-76
2023/03/08 11:35:10;;;;;;;12.82;8.60;;;;;11.20;99203.00;;;;5043260;28;20281;-76
2023/03/08 11:37:43;;;;;;;13.88;9.55;;;;;11.30;99201.00;;;;5044719;28;20198;-77
2023/03/08 11:40:21;;;;;;;15.30;9.52;;;;;11.20;99209.00;;;;5052022;28;20206;-76
2023/03/08 11:43:10;;;;;;;15.15;9.88;;;;;11.30;99191.00;;;;5044105;28;20200;-76
2023/03/08 11:45:44;;;;;;;15.30;8.55;;;;;11.40;99204.00;;;;5039830;28;20231;-76
2023/03/08 11:48:27;;;;;;;13.13;9.55;;;;;11.30;99209.00;;;;5050140;28;20202;-76
2023/03/08 11:51:03;;;;;;;12.63;9.02;;;;;11.40;99190.00;;;;5041386;28;20195;-77
2023/03/08 11:53:40;;;;;;;15.15;9.68;;;;;11.40;99180.00;;;;5044338;28;20203;-76
2023/03/08 11:56:18;;;;;;;13.38;8.77;;;;;11.40;99167.00;;;;5044431;28;20210;-76
2023/03/08 11:58:50;;;;;;;13.30;8.65;;;;;11.50;99163.00;;;;5036812;28;20577;-76
2023/03/08 12:01:21;;;;;;;12.93;7.88;;;;;11.50;99157.00;;;;5042815;28;20199;-76
2023/03/08 12:03:52;;;;;;;13.75;8.77;;;;;11.50;99160.00;;;;5048642;28;20196;-76
2023/03/08 12:06:27;;;;;;;13.73;8.88;;;;;11.50;99161.00;;;;5046583;28;20640;-76
2023/03/08 12:08:58;;;;;;;13.98;8.48;;;;;11.60;99158.00;;;;5046120;28;20203;-76
2023/03/08 12:11:29;;;;;;;12.32;7.63;;;;;11.60;99160.00;;;;5042774;28;20218;-76
2023/03/08 12:14:03;;;;;;;11.05;7.50;;;;;11.70;99147.00;;;;5043518;28;20813;-76
2023/03/08 12:16:39;;;;;;;12.77;8.00;;;;;11.70;99149.00;;;;5046446;28;20206;-76
2023/03/08 12:19:14;;;;;;;13.70;8.35;;;;;11.80;99147.00;;;;5044486;28;20196;-74
2023/03/08 12:21:49;;;;;;;11.38;7.28;;;;;11.90;99138.00;;;;5045792;28;20211;-74
2023/03/08 12:24:26;;;;;;;12.15;7.07;;;;;11.90;99129.00;;;;5045457;28;20198;-74
2023/03/08 12:26:58;;;;;;;10.57;6.68;;;;;12.00;99122.00;;;;5040471;28;20258;-74